Weather History for Marfa, TX

Change the Weather History Date:

Wednesday, June 5, 2013

  Actual Average Record
Temperature  
Mean Temperature 78 °F -  
Max Temperature 96 °F 85 °F 100 °F (2014)
Min Temperature 59 °F 55 °F 48 °F (2005)
Cooling Degree Days 12    
Growing Degree Days 28 (Base 50)    
Moisture  
Dew Point 44 °F    
Average Humidity 36    
Maximum Humidity 72    
Minimum Humidity 12    
Precipitation  
Precipitation 0.00 in - - ()
Sea Level Pressure  
Sea Level Pressure 30.04 in    
Wind  
Wind Speed 5 mph (North)    
Max Wind Speed 14 mph    
Max Gust Speed 20 mph    
Visibility 10 miles    
Events      
Averages and records for this station are not official NWS values.
T = Trace of Precipitation, MM = Missing Value Source: NWS Daily Summary

Daily Weather History Graph

Daily Weather History Graph

Search for Another Location

Airport:

Trip Planner

Search our weather history database for the weather conditions in past years. The results will help you decide how hot, cold, wet, or windy it might be!

Date:

Astronomy

Jun. 05, 2013 Rise Set
Actual Time 6:53 AM CDT 8:55 PM CDT
Civil Twilight 6:26 AM CDT 9:23 PM CDT
Nautical Twilight 5:53 AM CDT 9:56 PM CDT
Astronomical Twilight 5:17 AM CDT 10:31 PM CDT
Moon 4:49 AM CDT (6/5) 6:32 PM CDT (6/5)
Length of Visible Light 14h 56m
Length of Day
14h 01m
Waning Crescent, 8% of the Moon is Illuminated
Jun 5
Waning Crescent
Jun 8
New
Jun 16
First Quarter
Jun 23
Full
Jun 29
Last Quarter

Hourly Weather History & Observations

Time (CDT) Temp. Dew Point Humidity Pressure Visibility Wind Dir Wind Speed Gust Speed Precip Events Conditions
12:15 AM 69.8 °F 48.2 °F 46% 30.08 in 10.0 mi WNW 3.5 mph - N/A   Clear
12:35 AM 66.2 °F 50.0 °F 56% 30.08 in 10.0 mi NW 6.9 mph - N/A   Clear
12:55 AM 66.2 °F 50.0 °F 56% 30.07 in 10.0 mi West 4.6 mph - N/A   Clear
1:15 AM 64.4 °F 50.0 °F 59% 30.07 in 10.0 mi WNW 3.5 mph - N/A   Clear
1:35 AM 64.4 °F 51.8 °F 64% 30.07 in 10.0 mi North 8.1 mph - N/A   Clear
1:55 AM 62.6 °F 50.0 °F 63% 30.07 in 10.0 mi North 4.6 mph - N/A   Clear
2:15 AM 62.6 °F 50.0 °F 63% 30.07 in 10.0 mi North 4.6 mph - N/A   Clear
2:35 AM 62.6 °F 51.8 °F 68% 30.06 in 10.0 mi North 4.6 mph - N/A   Clear
2:55 AM 62.6 °F 51.8 °F 68% 30.06 in 10.0 mi North 3.5 mph - N/A   Clear
3:15 AM 62.6 °F 51.8 °F 68% 30.05 in 10.0 mi Calm Calm - N/A   Clear
3:35 AM 60.8 °F 51.8 °F 72% 30.05 in 10.0 mi North 6.9 mph - N/A   Clear
3:55 AM 60.8 °F 51.8 °F 72% 30.05 in 10.0 mi NNE 5.8 mph - N/A   Clear
4:15 AM 62.6 °F 50.0 °F 63% 30.04 in 10.0 mi NNE 6.9 mph - N/A   Clear
4:35 AM 60.8 °F 51.8 °F 72% 30.04 in 10.0 mi NE 6.9 mph - N/A   Clear
4:55 AM 62.6 °F 48.2 °F 59% 30.05 in 10.0 mi NW 8.1 mph - N/A   Clear
5:15 AM 62.6 °F 48.2 °F 59% 30.05 in 10.0 mi NNW 9.2 mph - N/A   Clear
5:35 AM 62.6 °F 48.2 °F 59% 30.05 in 10.0 mi North 6.9 mph - N/A   Clear
5:55 AM 60.8 °F 48.2 °F 63% 30.06 in 10.0 mi NW 6.9 mph - N/A   Clear
6:15 AM 59.0 °F 50.0 °F 72% 30.06 in 10.0 mi North 3.5 mph - N/A   Clear
6:35 AM 59.0 °F 50.0 °F 72% 30.06 in 10.0 mi North 4.6 mph - N/A   Clear
6:55 AM 59.0 °F 48.2 °F 67% 30.06 in 10.0 mi NE 5.8 mph - N/A   Clear
7:15 AM 60.8 °F 48.2 °F 63% 30.06 in 10.0 mi NE 5.8 mph - N/A   Clear
7:35 AM 60.8 °F 51.8 °F 72% 30.07 in 10.0 mi North 5.8 mph - N/A   Clear
7:55 AM 64.4 °F 51.8 °F 64% 30.07 in 10.0 mi North 4.6 mph - N/A   Clear
8:15 AM 68.0 °F 51.8 °F 56% 30.07 in 10.0 mi Calm Calm - N/A   Clear
8:35 AM 71.6 °F 51.8 °F 50% 30.08 in 10.0 mi North 3.5 mph - N/A   Clear
8:55 AM 73.4 °F 48.2 °F 41% 30.08 in 10.0 mi Calm Calm - N/A   Clear
9:15 AM 75.2 °F 48.2 °F 38% 30.08 in 10.0 mi Calm Calm - N/A   Clear
9:35 AM 78.8 °F 48.2 °F 34% 30.09 in 10.0 mi SW 3.5 mph - N/A   Clear
9:55 AM 78.8 °F 48.2 °F 34% 30.09 in 10.0 mi SW 4.6 mph - N/A   Clear
10:15 AM 80.6 °F 48.2 °F 32% 30.08 in 10.0 mi Calm Calm - N/A   Clear
10:35 AM 82.4 °F 48.2 °F 30% 30.08 in 10.0 mi South 3.5 mph - N/A   Clear
10:55 AM 84.2 °F 48.2 °F 29% 30.08 in 10.0 mi South 3.5 mph - N/A   Clear
11:15 AM 87.8 °F 48.2 °F 25% 30.08 in 10.0 mi Calm Calm - N/A   Clear
11:35 AM 89.6 °F 42.8 °F 20% 30.07 in 10.0 mi WNW 8.1 mph - N/A   Clear
11:55 AM 89.6 °F 39.2 °F 17% 30.07 in 10.0 mi SW 5.8 mph - N/A   Clear
12:15 PM 89.6 °F 39.2 °F 17% 30.07 in 10.0 mi NNW 3.5 mph - N/A   Clear
12:35 PM 91.4 °F 37.4 °F 15% 30.07 in 10.0 mi WNW 5.8 mph - N/A   Clear
12:55 PM 91.4 °F 37.4 °F 15% 30.07 in 10.0 mi SW 6.9 mph - N/A   Clear
1:15 PM 91.4 °F 37.4 °F 15% 30.06 in 10.0 mi SW 6.9 mph - N/A   Clear
1:35 PM 93.2 °F 37.4 °F 14% 30.05 in 10.0 mi Calm Calm - N/A   Clear
1:55 PM 95.0 °F 37.4 °F 13% 30.04 in 10.0 mi SSW 9.2 mph 16.1 mph N/A   Clear
2:15 PM 95.0 °F 35.6 °F 12% 30.04 in 10.0 mi SW 11.5 mph 18.4 mph N/A   Clear
2:35 PM 91.4 °F 33.8 °F 13% 30.03 in 10.0 mi SSW 5.8 mph - N/A   Clear
2:55 PM 95.0 °F 35.6 °F 12% 30.03 in 10.0 mi South 6.9 mph - N/A   Clear
3:15 PM 95.0 °F 35.6 °F 12% 30.03 in 10.0 mi South 3.5 mph 17.3 mph N/A   Clear
3:35 PM 96.8 °F 35.6 °F 12% 30.02 in 10.0 mi NW 4.6 mph 19.6 mph N/A   Clear
3:55 PM 93.2 °F 33.8 °F 12% 30.01 in 10.0 mi Calm Calm - N/A   Clear
4:15 PM 95.0 °F 35.6 °F 12% 30.01 in 10.0 mi West 8.1 mph - N/A   Clear
4:35 PM 91.4 °F 35.6 °F 14% 30.01 in 10.0 mi North 5.8 mph - N/A   Clear
4:55 PM 91.4 °F 35.6 °F 14% 30.00 in 10.0 mi North 13.8 mph 19.6 mph N/A   Clear
5:15 PM 93.2 °F 37.4 °F 14% 29.99 in 10.0 mi North 11.5 mph 17.3 mph N/A   Clear
5:35 PM 91.4 °F 33.8 °F 13% 29.98 in 10.0 mi NNW 8.1 mph - N/A   Clear
5:55 PM 91.4 °F 33.8 °F 13% 29.97 in 10.0 mi NNW 4.6 mph - N/A   Clear
6:15 PM 91.4 °F 33.8 °F 13% 29.97 in 10.0 mi Calm Calm - N/A   Clear
6:35 PM 91.4 °F 33.8 °F 13% 29.96 in 10.0 mi SE 5.8 mph - N/A   Clear
6:55 PM 91.4 °F 33.8 °F 13% 29.96 in 10.0 mi East 8.1 mph - N/A   Clear
7:15 PM 91.4 °F 35.6 °F 14% 29.96 in 10.0 mi ESE 11.5 mph - N/A   Clear
7:35 PM 91.4 °F 35.6 °F 14% 29.96 in 10.0 mi East 8.1 mph - N/A   Clear
7:55 PM 91.4 °F 35.6 °F 14% 29.96 in 10.0 mi East 9.2 mph - N/A   Clear
8:15 PM 89.6 °F 35.6 °F 15% 29.96 in 10.0 mi ESE 8.1 mph - N/A   Clear
8:35 PM 89.6 °F 37.4 °F 16% 29.96 in 10.0 mi East 5.8 mph - N/A   Clear
8:55 PM 87.8 °F 37.4 °F 17% 29.97 in 10.0 mi Calm Calm - N/A   Clear
9:15 PM 84.2 °F 37.4 °F 19% 29.98 in 10.0 mi SSE 6.9 mph - N/A   Clear
9:35 PM 82.4 °F 42.8 °F 25% 29.99 in 10.0 mi SE 9.2 mph - N/A   Clear
9:55 PM 80.6 °F 42.8 °F 26% 30.00 in 10.0 mi SSE 5.8 mph - N/A   Clear
10:15 PM 78.8 °F 44.6 °F 30% 30.00 in 10.0 mi SE 13.8 mph - N/A   Clear
10:35 PM 78.8 °F 46.4 °F 32% 30.00 in 10.0 mi SE 12.7 mph - N/A   Clear
10:55 PM 77.0 °F 46.4 °F 34% 30.00 in 10.0 mi SE 5.8 mph - N/A   Clear
11:15 PM 75.2 °F 46.4 °F 36% 30.01 in 10.0 mi ESE 6.9 mph - N/A   Clear
11:35 PM 73.4 °F 46.4 °F 38% 30.02 in 10.0 mi NNW 4.6 mph - N/A   Clear
11:55 PM 75.2 °F 48.2 °F 38% 30.02 in 10.0 mi Calm Calm - N/A   Clear